createdAt,value
2023-03-20T00:00:38.720Z,11.32
2023-03-20T00:03:25.077Z,10.95
2023-03-20T00:06:17.368Z,9.65
2023-03-20T00:09:07.422Z,9.57
2023-03-20T00:11:56.020Z,9.30
2023-03-20T00:14:42.523Z,8.60
2023-03-20T00:17:28.984Z,8.07
2023-03-20T00:20:18.914Z,7.43
2023-03-20T00:23:06.302Z,7.67
2023-03-20T00:25:53.132Z,6.95
2023-03-20T00:28:42.739Z,6.80
2023-03-20T00:31:31.892Z,6.60
2023-03-20T00:34:20.535Z,7.13
2023-03-20T00:37:06.662Z,6.30
2023-03-20T00:39:54.061Z,7.32
2023-03-20T00:42:40.773Z,5.90
2023-03-20T00:45:28.347Z,5.95
2023-03-20T00:48:16.621Z,5.95
2023-03-20T00:51:02.936Z,5.60
2023-03-20T00:53:51.566Z,5.60
2023-03-20T00:56:43.958Z,6.13
2023-03-20T00:59:34.519Z,5.72
2023-03-20T01:05:08.967Z,5.60
2023-03-20T01:07:55.710Z,5.03
2023-03-20T01:10:42.346Z,5.82
2023-03-20T01:13:32.063Z,6.72
2023-03-20T01:16:22.660Z,6.25
2023-03-20T01:19:13.190Z,5.68
2023-03-20T01:21:59.456Z,5.40
2023-03-20T01:24:46.188Z,7.22
2023-03-20T01:27:32.336Z,6.50
2023-03-20T01:30:23.324Z,6.85
2023-03-20T01:33:15.712Z,6.70
2023-03-20T01:36:03.256Z,7.47
2023-03-20T01:38:56.165Z,7.43
2023-03-20T01:41:43.776Z,8.75
2023-03-20T01:44:32.127Z,8.10
2023-03-20T01:47:22.216Z,8.75
2023-03-20T01:50:27.934Z,9.20
2023-03-20T01:53:23.072Z,9.80
2023-03-20T01:56:16.571Z,9.98
2023-03-20T01:59:12.996Z,9.77
2023-03-20T02:02:00.244Z,11.07
2023-03-20T02:04:53.369Z,11.45
2023-03-20T02:07:40.554Z,11.50
2023-03-20T02:10:29.379Z,11.02
2023-03-20T02:13:27.257Z,11.73
2023-03-20T02:16:15.496Z,11.57
2023-03-20T02:19:29.207Z,11.50
2023-03-20T02:22:46.218Z,10.85
2023-03-20T02:26:01.668Z,12.02
2023-03-20T02:29:19.018Z,12.98
2023-03-20T02:32:33.937Z,13.18
2023-03-20T02:35:42.888Z,13.02
2023-03-20T02:38:58.233Z,13.43
2023-03-20T02:41:52.808Z,14.18
2023-03-20T02:44:44.817Z,13.93
2023-03-20T02:47:36.930Z,14.70
2023-03-20T02:50:38.517Z,16.27
2023-03-20T02:53:35.974Z,14.95
2023-03-20T02:56:32.523Z,15.93
2023-03-20T02:59:29.605Z,15.25
2023-03-20T03:02:19.692Z,15.90
2023-03-20T03:05:12.623Z,15.13
2023-03-20T03:08:03.270Z,14.23
2023-03-20T03:10:56.554Z,15.52
2023-03-20T03:13:49.811Z,15.95
2023-03-20T03:16:38.942Z,15.15
2023-03-20T03:19:27.929Z,15.40
2023-03-20T03:22:14.288Z,16.17
2023-03-20T03:25:00.366Z,14.88
2023-03-20T03:27:50.236Z,15.02
2023-03-20T03:30:40.810Z,16.70
2023-03-20T03:33:30.783Z,15.98
2023-03-20T03:36:25.444Z,15.10
2023-03-20T03:39:22.295Z,16.10
2023-03-20T03:42:15.761Z,16.63
2023-03-20T03:45:09.546Z,15.15
2023-03-20T03:48:01.138Z,17.27
2023-03-20T03:50:52.630Z,15.80
2023-03-20T03:53:44.111Z,15.70
2023-03-20T03:56:33.800Z,15.45
2023-03-20T03:59:24.122Z,15.38
2023-03-20T04:02:11.835Z,15.63
2023-03-20T04:05:03.039Z,15.43
2023-03-20T04:07:54.971Z,15.57
2023-03-20T04:10:41.133Z,15.35
2023-03-20T04:13:28.216Z,16.52
2023-03-20T04:16:15.197Z,15.65
2023-03-20T04:19:03.531Z,17.08
2023-03-20T04:21:51.217Z,18.63
2023-03-20T04:24:37.611Z,17.58
2023-03-20T04:27:24.263Z,17.38
2023-03-20T04:30:12.850Z,18.92
2023-03-20T04:33:17.635Z,17.10
2023-03-20T04:36:23.182Z,18.40
2023-03-20T04:39:13.310Z,17.05
2023-03-20T04:41:59.778Z,17.95
2023-03-20T04:44:47.166Z,16.75
2023-03-20T04:47:33.768Z,18.10
2023-03-20T04:50:21.124Z,16.65
2023-03-20T04:53:09.450Z,15.30
2023-03-20T04:55:57.299Z,16.63
2023-03-20T04:58:43.903Z,15.88
2023-03-20T05:01:30.733Z,16.75
2023-03-20T05:04:17.103Z,15.23
2023-03-20T05:07:03.863Z,15.88
2023-03-20T05:09:58.953Z,14.93
2023-03-20T05:12:47.984Z,16.98
2023-03-20T05:15:43.981Z,16.42
2023-03-20T05:18:42.038Z,16.52
2023-03-20T05:21:44.571Z,16.48
2023-03-20T05:24:45.253Z,14.85
2023-03-20T05:27:47.101Z,17.67
2023-03-20T05:30:54.258Z,16.40
2023-03-20T05:33:55.820Z,16.85
2023-03-20T05:40:03.194Z,15.90
2023-03-20T05:43:05.680Z,14.07
2023-03-20T05:46:00.374Z,15.55
2023-03-20T05:49:09.618Z,15.38
2023-03-20T05:52:31.433Z,15.65
2023-03-20T05:55:31.331Z,17.42
2023-03-20T05:58:49.480Z,16.65
2023-03-20T06:02:04.001Z,15.55
2023-03-20T06:04:54.061Z,16.17
2023-03-20T06:07:46.621Z,16.35
2023-03-20T06:10:34.593Z,14.05
2023-03-20T06:13:21.302Z,15.18
2023-03-20T06:16:10.172Z,15.38
2023-03-20T06:18:58.242Z,15.40
2023-03-20T06:21:46.428Z,16.33
2023-03-20T06:24:47.403Z,14.30
2023-03-20T06:27:34.113Z,15.23
2023-03-20T06:30:21.007Z,14.45
2023-03-20T06:33:10.382Z,14.85
2023-03-20T06:36:10.533Z,14.50
2023-03-20T06:38:57.568Z,14.75
2023-03-20T06:41:45.780Z,16.60
2023-03-20T06:44:32.402Z,14.75
2023-03-20T06:47:32.158Z,14.93
2023-03-20T06:50:22.993Z,14.18
2023-03-20T06:53:09.827Z,11.88
2023-03-20T06:56:25.642Z,13.35
2023-03-20T06:59:12.054Z,13.43
2023-03-20T07:01:58.594Z,13.93
2023-03-20T07:04:46.713Z,12.80
2023-03-20T07:07:34.692Z,12.52
2023-03-20T07:10:21.359Z,12.15
2023-03-20T07:13:12.174Z,12.98
2023-03-20T07:16:05.155Z,11.23
2023-03-20T07:18:56.884Z,11.63
2023-03-20T07:21:43.061Z,11.68
2023-03-20T07:24:32.011Z,12.27
2023-03-20T07:27:18.910Z,11.43
2023-03-20T07:30:07.123Z,10.80
2023-03-20T07:32:53.598Z,11.73
2023-03-20T07:35:41.526Z,11.02
2023-03-20T07:38:28.356Z,11.75
2023-03-20T07:41:26.377Z,11.57
2023-03-20T07:44:21.896Z,11.18
2023-03-20T07:49:58.599Z,11.60
2023-03-20T07:52:47.671Z,11.02
2023-03-20T07:55:33.709Z,10.52
2023-03-20T07:58:21.713Z,10.93
2023-03-20T08:01:08.247Z,10.43
2023-03-20T08:03:54.416Z,10.98
2023-03-20T08:06:40.752Z,10.48
2023-03-20T08:09:27.466Z,9.73
2023-03-20T08:12:13.709Z,9.32
2023-03-20T08:15:01.421Z,9.85
2023-03-20T08:17:48.475Z,9.48
2023-03-20T08:20:34.814Z,8.63
2023-03-20T08:23:21.178Z,9.48
2023-03-20T08:26:08.713Z,8.13
2023-03-20T08:28:55.173Z,8.93
2023-03-20T08:31:43.488Z,8.88
2023-03-20T08:34:29.927Z,8.50
2023-03-20T08:37:16.113Z,8.32
2023-03-20T08:40:02.844Z,8.00
2023-03-20T08:42:49.116Z,9.80
2023-03-20T08:45:35.703Z,8.00
2023-03-20T08:48:24.048Z,8.40
2023-03-20T08:51:10.595Z,8.10
2023-03-20T08:53:57.267Z,10.10
2023-03-20T08:56:43.705Z,8.15
2023-03-20T08:59:31.313Z,8.23
2023-03-20T09:02:17.515Z,8.23
2023-03-20T09:05:05.496Z,7.45
2023-03-20T09:07:52.324Z,9.35
2023-03-20T09:10:40.629Z,9.10
2023-03-20T09:13:28.049Z,8.43
2023-03-20T09:16:15.153Z,7.93
2023-03-20T09:19:01.877Z,7.97
2023-03-20T09:21:49.751Z,8.73
2023-03-20T09:24:36.291Z,7.38
2023-03-20T09:27:22.676Z,7.35
2023-03-20T09:30:10.776Z,7.80
2023-03-20T09:32:56.961Z,8.05
2023-03-20T09:35:43.891Z,7.93
2023-03-20T09:38:31.981Z,7.75
2023-03-20T09:41:22.603Z,7.50
2023-03-20T09:44:15.579Z,7.60
2023-03-20T09:47:19.729Z,7.40
2023-03-20T09:50:22.058Z,7.47
2023-03-20T09:53:12.634Z,7.18
2023-03-20T09:56:01.599Z,7.05
2023-03-20T09:58:55.455Z,8.05
2023-03-20T10:01:48.737Z,6.93
2023-03-20T10:04:37.168Z,6.90
2023-03-20T10:07:24.169Z,6.72
2023-03-20T10:10:11.540Z,7.70
2023-03-20T10:13:09.908Z,6.63
2023-03-20T10:16:03.931Z,6.43
2023-03-20T10:18:57.250Z,6.03
2023-03-20T10:21:45.709Z,7.13
2023-03-20T10:24:37.005Z,7.28
2023-03-20T10:27:28.056Z,7.20
2023-03-20T10:30:26.460Z,7.32
2023-03-20T10:33:27.508Z,6.95
2023-03-20T10:36:34.117Z,8.25
2023-03-20T10:39:31.589Z,7.90
2023-03-20T10:42:22.807Z,7.78
2023-03-20T10:45:20.600Z,8.48
2023-03-20T10:48:17.234Z,8.25
2023-03-20T10:51:04.337Z,9.55
2023-03-20T10:53:53.793Z,9.90
2023-03-20T10:56:45.027Z,10.27
2023-03-20T10:59:37.649Z,10.80
2023-03-20T11:02:27.374Z,10.93
2023-03-20T11:05:23.591Z,10.07
2023-03-20T11:08:14.144Z,9.90
2023-03-20T11:11:03.037Z,10.75
2023-03-20T11:13:49.349Z,12.02
2023-03-20T11:16:36.782Z,11.85
2023-03-20T11:19:25.765Z,12.48
2023-03-20T11:22:26.757Z,12.35
2023-03-20T11:25:26.354Z,13.00
2023-03-20T11:28:27.772Z,12.33
2023-03-20T11:31:19.921Z,12.32
2023-03-20T11:34:22.737Z,12.43
2023-03-20T11:37:24.775Z,12.07
2023-03-20T11:40:17.426Z,12.82
2023-03-20T11:43:07.383Z,12.07
2023-03-20T11:45:57.431Z,13.07
2023-03-20T11:48:46.466Z,13.40
2023-03-20T11:51:35.178Z,13.77
2023-03-20T11:54:25.818Z,13.73
2023-03-20T12:00:21.341Z,15.35
2023-03-20T12:03:42.806Z,14.70
2023-03-20T12:06:42.330Z,13.95
2023-03-20T12:09:38.755Z,12.73
2023-03-20T12:12:34.247Z,13.00
2023-03-20T12:15:26.059Z,13.35
2023-03-20T12:18:18.562Z,11.77
2023-03-20T12:21:10.464Z,12.95
2023-03-20T12:24:04.388Z,14.07
2023-03-20T12:27:00.810Z,13.68
2023-03-20T12:29:53.157Z,14.02
2023-03-20T12:32:48.703Z,15.88
2023-03-20T12:35:41.142Z,14.80
2023-03-20T12:38:35.317Z,13.48
2023-03-20T12:41:27.807Z,14.07
2023-03-20T12:44:29.185Z,13.40
2023-03-20T12:47:36.986Z,13.43
2023-03-20T12:50:33.801Z,13.60
2023-03-20T12:53:41.033Z,14.13
2023-03-20T12:57:02.768Z,14.80
2023-03-20T13:00:05.978Z,16.17
2023-03-20T13:03:06.558Z,15.35
2023-03-20T13:06:00.203Z,14.93
2023-03-20T13:09:16.342Z,17.42
2023-03-20T13:12:10.014Z,15.65
2023-03-20T13:15:14.505Z,15.70
2023-03-20T13:18:08.326Z,15.45
2023-03-20T13:20:57.468Z,14.30
2023-03-20T13:23:53.203Z,15.02
2023-03-20T13:26:47.110Z,16.25
2023-03-20T13:29:42.096Z,16.38
2023-03-20T13:32:42.085Z,16.23
2023-03-20T13:35:43.959Z,16.95
2023-03-20T13:38:38.317Z,16.70
2023-03-20T13:41:26.159Z,16.10
2023-03-20T13:44:15.258Z,17.42
2023-03-20T13:47:05.165Z,14.63
2023-03-20T13:49:59.895Z,16.75
2023-03-20T13:52:50.578Z,17.70
2023-03-20T13:55:47.030Z,16.73
2023-03-20T13:58:46.032Z,16.80
2023-03-20T14:01:47.316Z,18.17
2023-03-20T14:04:35.731Z,19.33
2023-03-20T14:07:36.484Z,19.45
2023-03-20T14:10:36.616Z,18.55
2023-03-20T14:13:24.305Z,18.58
2023-03-20T14:16:16.662Z,20.00
2023-03-20T14:19:07.633Z,19.77
2023-03-20T14:21:56.510Z,19.13
2023-03-20T14:24:51.067Z,18.90
2023-03-20T14:27:54.833Z,19.38
2023-03-20T14:30:44.353Z,18.15
2023-03-20T14:33:32.373Z,20.70
2023-03-20T14:36:21.809Z,19.20
2023-03-20T14:39:19.504Z,21.80
2023-03-20T14:42:24.832Z,22.55
2023-03-20T14:45:31.044Z,22.17
2023-03-20T14:48:30.003Z,23.02
2023-03-20T14:51:28.530Z,22.52
2023-03-20T14:54:29.766Z,21.33
2023-03-20T14:57:30.269Z,21.85
2023-03-20T15:00:23.039Z,22.65
2023-03-20T15:03:12.194Z,24.10
2023-03-20T15:06:02.508Z,22.55
2023-03-20T15:08:52.587Z,24.20
2023-03-20T15:11:39.299Z,22.73
2023-03-20T15:14:30.602Z,23.52
2023-03-20T15:17:20.820Z,23.85
2023-03-20T15:20:17.924Z,25.77
2023-03-20T15:23:05.010Z,24.33
2023-03-20T15:25:52.007Z,25.50
2023-03-20T15:28:39.404Z,25.42
2023-03-20T15:31:30.730Z,24.52
2023-03-20T15:34:22.013Z,24.75
2023-03-20T15:37:16.104Z,23.92
2023-03-20T15:40:12.881Z,26.08
2023-03-20T15:43:00.267Z,25.20
2023-03-20T15:45:48.384Z,25.60
2023-03-20T15:48:36.182Z,25.42
2023-03-20T15:51:27.658Z,25.73
2023-03-20T15:57:05.284Z,27.15
2023-03-20T15:59:52.059Z,24.40
2023-03-20T16:02:38.859Z,25.45
2023-03-20T16:05:30.565Z,25.67
2023-03-20T16:08:24.142Z,24.48
2023-03-20T16:11:37.117Z,24.77
2023-03-20T16:14:26.126Z,25.25
2023-03-20T16:17:18.494Z,24.48
2023-03-20T16:20:06.073Z,27.13
2023-03-20T16:23:01.043Z,25.25
2023-03-20T16:25:47.538Z,25.10
2023-03-20T16:28:37.827Z,25.35
2023-03-20T16:31:28.323Z,25.58
2023-03-20T16:34:19.825Z,24.38
2023-03-20T16:37:10.270Z,24.65
2023-03-20T16:40:12.808Z,26.15
2023-03-20T16:43:06.509Z,24.40
2023-03-20T16:45:56.380Z,24.60
2023-03-20T16:48:45.448Z,23.50
2023-03-20T16:51:32.867Z,23.80
2023-03-20T16:54:21.605Z,23.88
2023-03-20T16:57:17.660Z,22.38
2023-03-20T17:00:08.313Z,24.27
2023-03-20T17:03:08.983Z,22.55
2023-03-20T17:05:57.820Z,23.67
2023-03-20T17:08:49.482Z,25.15
2023-03-20T17:11:41.508Z,24.30
2023-03-20T17:14:29.838Z,23.40
2023-03-20T17:17:19.661Z,24.27
2023-03-20T17:20:07.204Z,22.75
2023-03-20T17:23:19.148Z,22.23
2023-03-20T17:26:06.654Z,23.15
2023-03-20T17:28:53.227Z,25.02
2023-03-20T17:31:41.207Z,23.35
2023-03-20T17:34:27.553Z,24.80
2023-03-20T17:37:16.340Z,25.13
2023-03-20T17:40:03.400Z,26.02
2023-03-20T17:42:49.763Z,25.73
2023-03-20T17:45:36.227Z,26.48
2023-03-20T17:48:24.082Z,26.35
2023-03-20T17:51:10.952Z,24.98
2023-03-20T17:53:57.893Z,26.35
2023-03-20T17:56:44.066Z,26.75
2023-03-20T17:59:31.340Z,27.25
2023-03-20T18:02:19.137Z,27.55
2023-03-20T18:05:08.394Z,26.05
2023-03-20T18:07:54.780Z,29.20
2023-03-20T18:10:41.911Z,28.25
2023-03-20T18:13:29.191Z,33.85
2023-03-20T18:16:18.392Z,35.45
2023-03-20T18:19:05.312Z,29.42
2023-03-20T18:21:53.235Z,29.60
2023-03-20T18:24:52.091Z,28.33
2023-03-20T18:27:40.291Z,30.75
2023-03-20T18:30:31.225Z,29.98
2023-03-20T18:33:18.145Z,29.73
2023-03-20T18:36:05.471Z,30.15
2023-03-20T18:38:53.502Z,30.20
2023-03-20T18:41:39.787Z,31.08
2023-03-20T18:44:26.460Z,29.98
2023-03-20T18:47:12.984Z,30.30
2023-03-20T18:49:59.303Z,30.27
2023-03-20T18:52:46.697Z,31.10
2023-03-20T18:55:36.010Z,31.77
2023-03-20T18:58:24.969Z,30.73
2023-03-20T19:01:12.826Z,32.10
2023-03-20T19:03:59.359Z,30.77
2023-03-20T19:06:46.215Z,31.40
2023-03-20T19:09:34.700Z,32.03
2023-03-20T19:12:24.733Z,31.20
2023-03-20T19:15:11.830Z,30.73
2023-03-20T19:17:58.566Z,30.65
2023-03-20T19:20:48.059Z,30.42
2023-03-20T19:23:34.825Z,32.22
2023-03-20T19:26:24.372Z,32.75
2023-03-20T19:29:14.013Z,31.88
2023-03-20T19:32:00.677Z,30.08
2023-03-20T19:35:35.163Z,29.60
2023-03-20T19:37:53.790Z,27.40
2023-03-20T19:40:43.320Z,27.48
2023-03-20T19:43:30.394Z,28.10
2023-03-20T19:46:36.141Z,25.25
2023-03-20T19:49:30.637Z,23.73
2023-03-20T19:52:28.455Z,30.92
2023-03-20T19:55:15.298Z,23.25
2023-03-20T19:58:02.005Z,25.25
2023-03-20T20:01:12.225Z,23.05
2023-03-20T20:03:59.043Z,23.85
2023-03-20T20:06:48.649Z,24.67
2023-03-20T20:09:35.571Z,25.23
2023-03-20T20:12:22.124Z,24.73
2023-03-20T20:15:10.767Z,24.88
2023-03-20T20:17:57.299Z,24.00
2023-03-20T20:21:31.988Z,23.65
2023-03-20T20:23:53.145Z,23.23
2023-03-20T20:26:49.390Z,24.70
2023-03-20T20:29:39.555Z,24.88
2023-03-20T20:32:28.163Z,24.30
2023-03-20T20:35:56.046Z,24.10
2023-03-20T20:38:48.327Z,23.80
2023-03-20T20:41:30.163Z,22.35
2023-03-20T20:44:17.576Z,24.08
2023-03-20T20:47:04.850Z,23.60
2023-03-20T20:49:51.097Z,23.50
2023-03-20T20:52:39.732Z,24.17
2023-03-20T20:55:29.822Z,21.80
2023-03-20T20:58:16.256Z,23.65
2023-03-20T21:01:03.120Z,24.42
2023-03-20T21:03:49.797Z,24.42
2023-03-20T21:07:06.319Z,24.40
2023-03-20T21:09:43.313Z,24.05
2023-03-20T21:12:40.162Z,23.58
2023-03-20T21:15:29.349Z,23.10
2023-03-20T21:18:16.417Z,25.63
2023-03-20T21:21:07.209Z,29.40
2023-03-20T21:26:42.010Z,33.20
2023-03-20T21:29:30.588Z,33.63
2023-03-20T21:32:20.557Z,33.42
2023-03-20T21:35:09.237Z,32.85
2023-03-20T21:41:10.148Z,29.98
2023-03-20T21:43:56.648Z,28.88
2023-03-20T21:50:37.012Z,25.48
2023-03-20T21:56:48.529Z,25.60
2023-03-20T22:02:23.444Z,26.73
2023-03-20T22:09:18.533Z,25.60
2023-03-20T22:15:22.896Z,23.60
2023-03-20T22:24:43.598Z,25.02
2023-03-20T22:27:46.551Z,24.15
2023-03-20T22:46:03.309Z,24.60
2023-03-20T22:48:53.520Z,23.98
2023-03-20T22:51:52.090Z,23.20
2023-03-20T22:54:46.037Z,23.38
2023-03-20T22:57:42.456Z,24.38
2023-03-20T23:00:34.533Z,24.55
2023-03-20T23:03:37.596Z,24.80
2023-03-20T23:06:28.348Z,24.25
2023-03-20T23:09:16.613Z,26.05
2023-03-20T23:12:03.143Z,26.02
2023-03-20T23:14:49.452Z,26.10
2023-03-20T23:17:35.898Z,28.77
2023-03-20T23:20:22.370Z,29.92
2023-03-20T23:23:10.135Z,29.88
2023-03-20T23:26:03.539Z,32.20
2023-03-20T23:28:53.125Z,31.60
2023-03-20T23:31:39.590Z,31.00
2023-03-20T23:34:25.962Z,28.85
2023-03-20T23:37:12.177Z,29.73
2023-03-20T23:39:59.649Z,28.00
2023-03-20T23:42:45.981Z,27.70
2023-03-20T23:45:32.096Z,27.85
2023-03-20T23:48:18.935Z,30.85
2023-03-20T23:51:06.631Z,29.20
2023-03-20T23:53:52.883Z,28.88
2023-03-20T23:56:40.725Z,29.02
2023-03-20T23:59:27.220Z,26.92
